Seafrance Rodin — FOBQ — position and weather

sailwx.info

Track history (hours):
 
Tides and Currents Weather Stations Pressure Air Temp Water Temp Dewpoint Dewpoint Depression Visibility Wind Speed Wind Dir Waves Ship Positions

Seafrance Rodin

Operator: SeaFrance

Last reported at 2017-Oct-20 19:30 UTC. Time now 2017-Oct-20 19:51 UTC.
Position N 51°08' E 001°20'.

; draft 6 m.

Type: Passenger vessel. MMSI: 227022800.

Date/timePositionNaut miles runAvg speedWind from/ knotsBaromVisibWave heightAir tempDewpointWater temp
2017-Oct-20 19:30N 51°08' E 001°20'0 0.8
2017-Oct-20 18:59N 51°07' E 001°20'510.3
2017-Oct-20 18:30N 51°06' E 001°28'815.9
2017-Oct-20 18:00N 51°01' E 001°38'815.4
2017-Oct-20 17:30N 50°58' E 001°49'1 2.4
2017-Oct-20 17:00N 50°58' E 001°51'2 3.6
2017-Oct-20 16:31N 50°58' E 001°48'714.5
2017-Oct-20 16:01N 51°00' E 001°37'918.5
2017-Oct-20 15:31N 51°06' E 001°25'4 7.5
2017-Oct-20 15:00N 51°08' E 001°20'2 2.1
2017-Oct-20 14:01N 51°07' E 001°24'5 9.6
2017-Oct-20 13:30N 51°05' E 001°30'816.1
2017-Oct-20 13:01N 51°00' E 001°41'713.8
2017-Oct-20 12:30N 50°58' E 001°51'0 0.1
2017-Oct-20 12:00N 50°58' E 001°51'3 6.2
2017-Oct-20 11:31N 50°58' E 001°46'1019.4
2017-Oct-20 11:00N 51°03' E 001°33'916.8
2017-Oct-20 10:27N 51°08' E 001°20'0 0.0
2017-Oct-20 10:00N 51°08' E 001°20'0 0.0
2017-Oct-20 09:30N 51°08' E 001°20'2 3.5
2017-Oct-20 09:01N 51°07' E 001°23'3 6.4
2017-Oct-20 08:30N 51°06' E 001°28'1216.9
2017-Oct-20 07:47N 50°59' E 001°43'516.6
2017-Oct-20 07:30N 50°58' E 001°50'1 1.1
2017-Oct-20 07:00N 50°58' E 001°51'0 0.0
2017-Oct-20 06:30N 50°58' E 001°51'4 8.3
2017-Oct-20 06:01N 50°58' E 001°45'1717.0
2017-Oct-20 05:00N 51°07' E 001°22'1 2.4
2017-Oct-20 04:30N 51°08' E 001°20'0 0.0
2017-Oct-20 04:00N 51°08' E 001°20'4 7.5
2017-Oct-20 03:31N 51°07' E 001°26'816.3
2017-Oct-20 03:01N 51°02' E 001°37'815.7
2017-Oct-20 02:31N 50°58' E 001°48'2 4.3
2017-Oct-20 02:00N 50°58' E 001°51'0 0.0
2017-Oct-20 01:30N 50°58' E 001°51'2 3.7
2017-Oct-20 01:00N 50°58' E 001°48'918.7
2017-Oct-20 00:30N 51°00' E 001°34'815.1
2017-Oct-20 00:01N 51°05' E 001°25'4 7.2
2017-Oct-19 23:30N 51°08' E 001°20'0 0.0
2017-Oct-19 23:00N 51°08' E 001°20'1 1.2
2017-Oct-19 22:30N 51°07' E 001°21'816.9
2017-Oct-19 22:01N 51°04' E 001°33'1019.9
2017-Oct-19 21:30N 50°58' E 001°46'3 6.3
2017-Oct-19 21:00N 50°58' E 001°51'0 0.0
2017-Oct-19 20:30N 50°58' E 001°51'4 7.6
2017-Oct-19 20:01N 50°58' E 001°45'917.6
2017-Oct-19 19:30N 51°02' E 001°33'917.6
2017-Oct-19 19:00N 51°07' E 001°21'1 1.6
2017-Oct-19 18:30N 51°08' E 001°20'0 0.0
2017-Oct-19 18:00N 51°08' E 001°20'612.0
2017-Oct-19 17:30N 51°05' E 001°29'1019.0
2017-Oct-19 17:00N 50°59' E 001°41'612.8
2017-Oct-19 16:30N 50°58' E 001°51'0 0.0
2017-Oct-19 16:00N 50°58' E 001°51'2 4.4
2017-Oct-19 15:31N 50°58' E 001°48'917.3
2017-Oct-19 15:00N 51°00' E 001°35'918.9
2017-Oct-19 14:31N 51°06' E 001°23'2 4.0
2017-Oct-19 14:00N 51°08' E 001°20'0 0.0
2017-Oct-19 13:30N 51°08' E 001°20'4 8.8
2017-Oct-19 13:01N 51°06' E 001°27'1020.1
2017-Oct-19 12:30N 51°00' E 001°40'714.8
2017-Oct-19 12:00N 50°58' E 001°51'0 0.1
2017-Oct-19 11:30N 50°58' E 001°51'0 0.0
2017-Oct-19 11:00N 50°58' E 001°51'816.2
2017-Oct-19 10:30N 50°59' E 001°38'917.7
2017-Oct-19 10:00N 51°04' E 001°27'610.6
2017-Oct-19 09:29N 51°08' E 001°20'0 0.0
2017-Oct-19 09:00N 51°08' E 001°20'3 5.3
2017-Oct-19 08:30N 51°07' E 001°24'918.2
2017-Oct-19 08:00N 51°02' E 001°37'917.6
2017-Oct-19 07:30N 50°58' E 001°49'1 2.5
2017-Oct-19 07:00N 50°58' E 001°51'0 0.0
2017-Oct-19 06:30N 50°58' E 001°51'4 8.0
2017-Oct-19 06:00N 50°58' E 001°45'816.5
2017-Oct-19 05:30N 51°01' E 001°33'917.5
2017-Oct-19 05:00N 51°06' E 001°22'2 3.0
2017-Oct-19 04:30N 51°08' E 001°20'0 0.0
2017-Oct-19 04:00N 51°08' E 001°20'4 7.6
2017-Oct-19 03:30N 51°07' E 001°26'917.5
2017-Oct-19 03:00N 51°02' E 001°38'815.8
2017-Oct-19 02:30N 50°58' E 001°49'1 2.3
2017-Oct-19 02:01N 50°58' E 001°51'0 0.0
2017-Oct-19 01:31N 50°58' E 001°51'1 1.6
2017-Oct-19 01:01N 50°58' E 001°50'917.8
2017-Oct-19 00:31N 50°60' E 001°36'917.2
2017-Oct-19 00:01N 51°05' E 001°25'4 7.8
2017-Oct-18 23:30N 51°08' E 001°20'0 0.0
2017-Oct-18 23:00N 51°08' E 001°20'1 1.8
2017-Oct-18 22:30N 51°07' E 001°22'918.4
2017-Oct-18 22:00N 51°03' E 001°34'919.0
2017-Oct-18 21:30N 50°58' E 001°47'2 4.8
2017-Oct-18 21:00N 50°58' E 001°51'0 0.0
2017-Oct-18 20:30N 50°58' E 001°51'5 9.2
2017-Oct-18 20:00N 50°58' E 001°44'917.9
2017-Oct-18 19:30N 51°01' E 001°31'917.5
2017-Oct-18 19:00N 51°07' E 001°21'0 0.7
2017-Oct-18 18:30N 51°08' E 001°20'0 0.0
2017-Oct-18 18:00N 51°08' E 001°20'612.7
2017-Oct-18 17:31N 51°05' E 001°29'1019.2
2017-Oct-18 17:00N 50°59' E 001°42'611.7
2017-Oct-18 16:30N 50°58' E 001°51'0 0.0
2017-Oct-18 16:00N 50°58' E 001°51'2 4.8
2017-Oct-18 15:31N 50°58' E 001°47'918.3
2017-Oct-18 15:00N 51°01' E 001°34'1110.5
2017-Oct-18 14:00N 51°08' E 001°20'0 0.1
2017-Oct-18 13:29N 51°07' E 001°20'612.6
2017-Oct-18 13:00N 51°06' E 001°30'918.6
2017-Oct-18 12:30N 50°60' E 001°40'713.6
2017-Oct-18 12:01N 50°58' E 001°51'0 0.5
2017-Oct-18 11:31N 50°58' E 001°51'0 0.2
2017-Oct-18 11:00N 50°58' E 001°51'815.5
2017-Oct-18 10:30N 50°59' E 001°39'919.0
2017-Oct-18 10:01N 51°04' E 001°26'510.3
2017-Oct-18 09:30N 51°08' E 001°20'0 0.0
2017-Oct-18 09:00N 51°08' E 001°20'3 5.4
2017-Oct-18 08:31N 51°07' E 001°24'918.7
2017-Oct-18 08:00N 51°01' E 001°37'917.4
2017-Oct-18 07:30N 50°58' E 001°50'1 2.0
2017-Oct-18 07:00N 50°58' E 001°51'0 0.0
2017-Oct-18 06:30N 50°58' E 001°51'4 8.6
2017-Oct-18 06:00N 50°58' E 001°44'816.2
2017-Oct-18 05:30N 51°01' E 001°33'817.0
2017-Oct-18 05:00N 51°06' E 001°22'2 3.0
2017-Oct-18 04:30N 51°08' E 001°20'0 0.0
2017-Oct-18 03:59N 51°08' E 001°20'5 9.7
2017-Oct-18 03:31N 51°06' E 001°27'714.3
2017-Oct-18 03:01N 51°02' E 001°36'815.9
2017-Oct-18 02:31N 50°58' E 001°48'2 4.6
2017-Oct-18 02:01N 50°58' E 001°51'0 0.0
2017-Oct-18 01:31N 50°58' E 001°51'1 2.2
2017-Oct-18 01:01N 50°58' E 001°50'816.8
2017-Oct-18 00:31N 50°60' E 001°36'917.1
2017-Oct-18 00:01N 51°05' E 001°26'4 8.0
2017-Oct-17 23:28N 51°08' E 001°20'0 0.0
2017-Oct-17 23:00N 51°08' E 001°20'2 4.5
2017-Oct-17 22:30N 51°07' E 001°24'816.4
2017-Oct-17 22:01N 51°04' E 001°36'917.4
2017-Oct-17 21:30N 50°58' E 001°46'3 6.3
2017-Oct-17 21:00N 50°58' E 001°51'0 0.0
2017-Oct-17 20:31N 50°58' E 001°51'815.1
2017-Oct-17 20:00N 50°59' E 001°39'1019.2
2017-Oct-17 19:30N 51°04' E 001°27'510.3
2017-Oct-17 19:00N 51°08' E 001°20'0 0.0
2017-Oct-17 18:30N 51°08' E 001°20'0 0.9
2017-Oct-17 18:00N 51°07' E 001°21'817.0
2017-Oct-17 17:31N 51°03' E 001°33'1019.2
2017-Oct-17 17:00N 50°58' E 001°46'4 7.1
2017-Oct-17 16:31N 50°58' E 001°51'0 0.0
2017-Oct-17 16:01N 50°58' E 001°51'3 6.4
2017-Oct-17 15:31N 50°58' E 001°46'918.6
2017-Oct-17 15:01N 51°02' E 001°33'1018.5
2017-Oct-17 14:30N 51°07' E 001°20'0 0.5
2017-Oct-17 14:00N 51°08' E 001°20'0 0.3
2017-Oct-17 13:30N 51°07' E 001°20'714.5
2017-Oct-17 13:01N 51°04' E 001°31'917.7
2017-Oct-17 12:31N 50°60' E 001°43'611.2
2017-Oct-17 12:00N 50°58' E 001°51'0 0.0
2017-Oct-17 11:30N 50°58' E 001°51'0 0.7
2017-Oct-17 11:00N 50°58' E 001°51'917.5
2017-Oct-17 10:30N 50°59' E 001°37'918.3
2017-Oct-17 10:01N 51°05' E 001°26'4 7.9
2017-Oct-17 09:29N 51°08' E 001°20'0 0.0
2017-Oct-17 08:58N 51°08' E 001°20'3 5.9
2017-Oct-17 08:30N 51°07' E 001°25'1020.4
2017-Oct-17 08:00N 51°01' E 001°38'816.6
2017-Oct-17 07:30N 50°58' E 001°51'0 1.0
2017-Oct-17 07:00N 50°58' E 001°51'0 0.0
2017-Oct-17 06:30N 50°58' E 001°51'4 7.5
2017-Oct-17 06:00N 50°58' E 001°45'816.0
2017-Oct-17 05:30N 51°01' E 001°33'917.2
2017-Oct-17 05:00N 51°06' E 001°23'2 4.4
2017-Oct-17 04:30N 51°08' E 001°20'0 0.0
2017-Oct-17 04:00N 51°08' E 001°20'5 9.5
2017-Oct-17 03:30N 51°06' E 001°27'714.7
2017-Oct-17 03:01N 51°02' E 001°37'714.8
2017-Oct-17 02:30N 50°58' E 001°47'3 5.1
2017-Oct-17 02:00N 50°58' E 001°51'0 0.0
2017-Oct-17 01:30N 50°58' E 001°51'2 4.3
2017-Oct-17 01:00N 50°58' E 001°48'816.5
2017-Oct-17 00:30N 51°00' E 001°35'917.5
2017-Oct-17 00:00N 51°05' E 001°24'3 6.1
2017-Oct-16 23:30N 51°08' E 001°20'0 0.0
2017-Oct-16 22:56N 51°08' E 001°20'2 3.8
2017-Oct-16 22:30N 51°07' E 001°23'817.0
2017-Oct-16 22:01N 51°03' E 001°34'918.6
2017-Oct-16 21:30N 50°58' E 001°47'3 5.2
2017-Oct-16 21:00N 50°58' E 001°51'0 0.0
2017-Oct-16 20:30N 50°58' E 001°51'5 9.6
2017-Oct-16 20:00N 50°58' E 001°44'1019.1
2017-Oct-16 19:30N 51°03' E 001°31'815.8
2017-Oct-16 19:00N 51°07' E 001°20'0 0.1
2017-Oct-16 18:30N 51°08' E 001°20'0 0.3
2017-Oct-16 17:59N 51°07' E 001°20'714.3
2017-Oct-16 17:30N 51°05' E 001°31'918.8
2017-Oct-16 17:00N 50°59' E 001°43'611.0
2017-Oct-16 16:31N 50°58' E 001°51'0 0.0
2017-Oct-16 16:00N 50°58' E 001°51'1 2.6
2017-Oct-16 15:30N 50°58' E 001°49'816.0
2017-Oct-16 15:00N 51°00' E 001°37'1312.7
2017-Oct-16 14:01N 51°07' E 001°20'0 0.0
2017-Oct-16 13:29N 51°07' E 001°20'511.3
2017-Oct-16 13:00N 51°06' E 001°28'918.7
2017-Oct-16 12:30N 51°01' E 001°40'714.5
2017-Oct-16 12:01N 50°58' E 001°51'0 0.2
2017-Oct-16 11:30N 50°58' E 001°51'0 0.8
2017-Oct-16 11:00N 50°58' E 001°51'816.6
2017-Oct-16 10:30N 50°59' E 001°38'918.1
2017-Oct-16 10:00N 51°05' E 001°26'5 8.1
2017-Oct-16 09:27N 51°07' E 001°20'0 0.0
2017-Oct-16 09:00N 51°07' E 001°20'3 6.2
2017-Oct-16 08:30N 51°07' E 001°25'918.8
2017-Oct-16 08:00N 51°02' E 001°38'816.3
2017-Oct-16 07:30N 50°58' E 001°49'1 2.3
2017-Oct-16 07:01N 50°58' E 001°51'0 0.0
2017-Oct-16 06:30N 50°58' E 001°51'4 7.2
2017-Oct-16 06:01N 50°58' E 001°46'815.8
2017-Oct-16 05:30N 51°00' E 001°34'816.4
2017-Oct-16 05:01N 51°06' E 001°24'3 5.2
2017-Oct-16 04:27N 51°07' E 001°20'0 0.0
2017-Oct-16 03:59N 51°07' E 001°20'511.1
2017-Oct-16 03:31N 51°05' E 001°28'816.2
2017-Oct-16 03:01N 51°01' E 001°38'815.1
2017-Oct-16 02:30N 50°58' E 001°50'1 1.7
2017-Oct-16 02:00N 50°58' E 001°51'0 0.0
2017-Oct-16 01:30N 50°58' E 001°51'2 3.1
2017-Oct-16 01:00N 50°58' E 001°49'817.0
2017-Oct-16 00:30N 51°00' E 001°36'918.9
2017-Oct-16 00:00N 51°05' E 001°23'3 5.2
2017-Oct-15 23:30N 51°07' E 001°20'0 0.0
2017-Oct-15 22:58N 51°07' E 001°20'2 4.2
2017-Oct-15 22:31N 51°07' E 001°23'918.2
2017-Oct-15 22:01N 51°03' E 001°36'917.2
2017-Oct-15 21:31N 50°58' E 001°48'2 4.4
2017-Oct-15 21:00N 50°58' E 001°51'0 0.0
2017-Oct-15 20:30N 50°58' E 001°51'4 7.7
2017-Oct-15 20:00N 50°58' E 001°45'918.5
2017-Oct-15 19:30N 51°01' E 001°31'817.0
2017-Oct-15 19:00N 51°07' E 001°22'1 2.0
2017-Oct-15 18:30N 51°07' E 001°20'0 0.0
2017-Oct-15 17:59N 51°07' E 001°20'714.1
2017-Oct-15 17:31N 51°04' E 001°30'918.9
2017-Oct-15 17:00N 50°59' E 001°43'611.2
2017-Oct-15 16:30N 50°58' E 001°51'0 0.0
2017-Oct-15 16:01N 50°58' E 001°51'2 3.6
2017-Oct-15 15:30N 50°58' E 001°48'816.2
2017-Oct-15 15:00N 51°00' E 001°36'1212.3
2017-Oct-15 14:00N 51°07' E 001°20'0 0.0
2017-Oct-15 13:30N 51°07' E 001°20'612.4
2017-Oct-15 13:01N 51°07' E 001°30'918.5
2017-Oct-15 12:30N 51°01' E 001°41'713.9
2017-Oct-15 12:01N 50°58' E 001°51'0 0.3
2017-Oct-15 11:30N 50°58' E 001°52'0 0.0
2017-Oct-15 11:00N 50°58' E 001°52'0 0.0
2017-Oct-15 10:30N 50°58' E 001°52'0 0.0
2017-Oct-15 10:00N 50°58' E 001°52'0 0.0
2017-Oct-15 09:30N 50°58' E 001°52'0 0.0
2017-Oct-15 09:00N 50°58' E 001°52'0 0.0
2017-Oct-15 08:30N 50°58' E 001°52'0 0.0
2017-Oct-15 08:00N 50°58' E 001°52'0 0.0
2017-Oct-15 07:30N 50°58' E 001°52'0 0.0
2017-Oct-15 07:00N 50°58' E 001°52'0 0.0
2017-Oct-15 06:30N 50°58' E 001°52'0 0.0
2017-Oct-15 06:00N 50°58' E 001°52'0 0.0
2017-Oct-15 05:30N 50°58' E 001°52'0 0.0
2017-Oct-15 05:00N 50°58' E 001°52'0 0.0
2017-Oct-15 04:30N 50°58' E 001°52'0 0.0
2017-Oct-15 04:00N 50°58' E 001°52'0 0.0
2017-Oct-15 03:30N 50°58' E 001°52'0 0.0
2017-Oct-15 03:00N 50°58' E 001°52'0 0.0
2017-Oct-15 02:30N 50°58' E 001°52'0 0.0
2017-Oct-15 02:00N 50°58' E 001°52'0 0.0
2017-Oct-15 01:29N 50°58' E 001°52'4 8.8
2017-Oct-15 01:01N 50°58' E 001°45'714.8
2017-Oct-15 00:30N 51°00' E 001°34'816.9
2017-Oct-15 00:00N 51°06' E 001°24'3 5.6
2017-Oct-14 23:30N 51°07' E 001°20'0 0.0
2017-Oct-14 23:00N 51°07' E 001°20'1 2.9
2017-Oct-14 22:30N 51°07' E 001°22'918.1
2017-Oct-14 22:00N 51°03' E 001°35'917.8
2017-Oct-14 21:30N 50°58' E 001°47'3 5.3
2017-Oct-14 21:01N 50°58' E 001°51'0 0.0
2017-Oct-14 20:31N 50°58' E 001°51'3 6.1
2017-Oct-14 20:01N 50°58' E 001°46'917.8
2017-Oct-14 19:30N 51°02' E 001°33'917.9
2017-Oct-14 19:00N 51°07' E 001°22'1 2.0
2017-Oct-14 18:30N 51°07' E 001°20'0 0.0
2017-Oct-14 18:01N 51°07' E 001°20'612.9
2017-Oct-14 17:31N 51°05' E 001°30'918.7
2017-Oct-14 17:01N 50°60' E 001°42'612.0
2017-Oct-14 16:31N 50°58' E 001°51'0 0.0
2017-Oct-14 16:01N 50°58' E 001°51'2 4.3
2017-Oct-14 15:30N 50°58' E 001°48'917.0
2017-Oct-14 15:00N 51°01' E 001°35'918.1
2017-Oct-14 14:30N 51°06' E 001°23'2 4.5
2017-Oct-14 14:00N 51°07' E 001°20'0 0.0
2017-Oct-14 13:30N 51°07' E 001°20'612.2
2017-Oct-14 13:00N 51°06' E 001°29'918.4
2017-Oct-14 12:31N 51°00' E 001°41'714.1
2017-Oct-14 12:01N 50°58' E 001°51'0 0.1
2017-Oct-14 11:31N 50°58' E 001°51'1 1.4
2017-Oct-14 11:01N 50°58' E 001°50'917.6
2017-Oct-14 10:30N 50°59' E 001°36'918.4
2017-Oct-14 10:01N 51°05' E 001°25'4 6.5
2017-Oct-14 09:23N 51°07' E 001°20'0 0.0
2017-Oct-14 08:59N 51°07' E 001°20'3 5.7
2017-Oct-14 08:30N 51°07' E 001°24'919.0
2017-Oct-14 08:00N 51°02' E 001°37'816.8
2017-Oct-14 07:30N 50°58' E 001°49'1 2.5
2017-Oct-14 07:00N 50°58' E 001°51'0 0.0
2017-Oct-14 06:30N 50°58' E 001°51'4 7.6
2017-Oct-14 06:00N 50°58' E 001°45'815.9
2017-Oct-14 05:30N 50°60' E 001°33'816.6
2017-Oct-14 05:00N 51°06' E 001°24'3 5.3
2017-Oct-14 04:29N 51°07' E 001°20'0 0.0
2017-Oct-14 04:00N 51°07' E 001°20'4 8.1
2017-Oct-14 03:30N 51°06' E 001°26'816.3
2017-Oct-14 03:00N 51°01' E 001°37'816.3
2017-Oct-14 02:30N 50°58' E 001°49'2 3.2
2017-Oct-14 02:00N 50°58' E 001°51'0 0.0
2017-Oct-14 01:30N 50°58' E 001°51'3 6.1
2017-Oct-14 01:00N 50°58' E 001°46'816.1
2017-Oct-14 00:30N 50°59' E 001°34'917.7
2017-Oct-14 00:00N 51°05' E 001°23'3 5.7
2017-Oct-13 23:29N 51°07' E 001°20'0 0.0
2017-Oct-13 23:00N 51°07' E 001°20'2 3.2
2017-Oct-13 22:30N 51°07' E 001°23'817.0
2017-Oct-13 22:01N 51°04' E 001°35'917.5
2017-Oct-13 21:31N 50°58' E 001°45'4 7.3
2017-Oct-13 21:01N 50°58' E 001°51'0 0.0
2017-Oct-13 20:30N 50°58' E 001°51'3 5.6
2017-Oct-13 20:00N 50°58' E 001°47'917.4
2017-Oct-13 19:30N 51°02' E 001°35'1018.2
2017-Oct-13 18:59N 51°07' E 001°21'1 1.9
2017-Oct-13 18:28N 51°07' E 001°20'0 0.0
2017-Oct-13 18:00N 51°07' E 001°20'611.5
2017-Oct-13 17:30N 51°05' E 001°29'918.3
2017-Oct-13 17:01N 50°60' E 001°40'714.3
2017-Oct-13 16:31N 50°58' E 001°51'0 0.3
2017-Oct-13 16:00N 50°58' E 001°51'1 2.5
2017-Oct-13 15:31N 50°58' E 001°49'917.9
2017-Oct-13 15:00N 51°00' E 001°35'918.1
2017-Oct-13 14:31N 51°06' E 001°24'3 5.6
2017-Oct-13 14:00N 51°07' E 001°20'0 0.0
2017-Oct-13 13:30N 51°07' E 001°20'612.8
2017-Oct-13 13:00N 51°06' E 001°30'1019.1
2017-Oct-13 12:30N 50°60' E 001°41'612.9
2017-Oct-13 12:00N 50°58' E 001°51'0 0.0
2017-Oct-13 11:30N 50°58' E 001°51'0 0.4
2017-Oct-13 11:00N 50°58' E 001°51'815.6
2017-Oct-13 10:30N 50°59' E 001°39'1019.4
2017-Oct-13 10:01N 51°04' E 001°25'5 8.8
2017-Oct-13 09:28N 51°07' E 001°20'0 0.0
2017-Oct-13 08:59N 51°07' E 001°20'3 6.5
2017-Oct-13 08:30N 51°07' E 001°25'918.9
2017-Oct-13 08:00N 51°02' E 001°38'816.5
2017-Oct-13 07:31N 50°58' E 001°50'1 1.8
2017-Oct-13 07:00N 50°58' E 001°51'0 0.0
2017-Oct-13 06:31N 50°58' E 001°51'3 5.5
2017-Oct-13 06:00N 50°58' E 001°47'917.4
2017-Oct-13 05:31N 51°01' E 001°34'816.4
2017-Oct-13 05:01N 51°06' E 001°24'3 4.3
2017-Oct-13 04:22N 51°07' E 001°20'0 0.0
2017-Oct-13 03:58N 51°07' E 001°20'4 9.2
2017-Oct-13 03:30N 51°06' E 001°27'815.7
2017-Oct-13 03:00N 51°01' E 001°37'815.5
2017-Oct-13 02:30N 50°58' E 001°48'2 3.9
2017-Oct-13 02:00N 50°58' E 001°51'0 0.0
2017-Oct-13 01:31N 50°58' E 001°51'1 3.0
2017-Oct-13 01:00N 50°58' E 001°49'714.8
2017-Oct-13 00:30N 51°00' E 001°37'816.3
2017-Oct-13 00:00N 51°05' E 001°27'5 9.6
2017-Oct-12 23:30N 51°07' E 001°20'0 0.0
2017-Oct-12 23:00N 51°07' E 001°20'1 2.0
2017-Oct-12 22:30N 51°07' E 001°22'917.8
2017-Oct-12 22:01N 51°03' E 001°34'918.4
2017-Oct-12 21:31N 50°58' E 001°46'3 6.4
2017-Oct-12 21:00N 50°58' E 001°51'0 0.0
2017-Oct-12 20:30N 50°58' E 001°51'510.4
2017-Oct-12 20:00N 50°58' E 001°43'817.0
2017-Oct-12 19:30N 51°02' E 001°31'916.6
2017-Oct-12 18:59N 51°07' E 001°20'0 0.1
2017-Oct-12 18:29N 51°07' E 001°20'0 0.1
2017-Oct-12 18:00N 51°07' E 001°20'714.3
2017-Oct-12 17:30N 51°05' E 001°31'1019.6
2017-Oct-12 17:00N 50°59' E 001°43'510.5
2017-Oct-12 16:30N 50°58' E 001°51'0 0.0
2017-Oct-12 16:00N 50°58' E 001°51'2 4.6
2017-Oct-12 15:30N 50°58' E 001°48'1019.3
2017-Oct-12 15:00N 51°01' E 001°33'918.2
2017-Oct-12 14:30N 51°07' E 001°22'1 2.4
2017-Oct-12 14:00N 51°07' E 001°20'0 0.1
2017-Oct-12 13:30N 51°07' E 001°20'714.3
2017-Oct-12 13:00N 51°06' E 001°31'1019.8
2017-Oct-12 12:30N 50°59' E 001°43'510.9
2017-Oct-12 12:00N 50°58' E 001°51'0 0.0
2017-Oct-12 11:30N 50°58' E 001°51'1 1.8
2017-Oct-12 11:01N 50°58' E 001°50'713.2
2017-Oct-12 10:31N 50°58' E 001°40'918.7
2017-Oct-12 10:01N 51°04' E 001°28'611.7
2017-Oct-12 09:30N 51°07' E 001°20'0 0.0
2017-Oct-12 09:00N 51°07' E 001°20'3 5.7
2017-Oct-12 08:30N 51°07' E 001°25'1019.6
2017-Oct-12 08:00N 51°02' E 001°38'917.2
2017-Oct-12 07:30N 50°58' E 001°50'1 1.1
2017-Oct-12 07:00N 50°58' E 001°51'0 0.0
2017-Oct-12 06:30N 50°58' E 001°51'3 7.0
2017-Oct-12 06:00N 50°58' E 001°46'917.3
2017-Oct-12 05:30N 51°02' E 001°34'917.4
2017-Oct-12 05:00N 51°07' E 001°22'1 2.4
2017-Oct-12 04:30N 51°07' E 001°20'0 0.0
2017-Oct-12 04:00N 51°07' E 001°20'4 8.4
2017-Oct-12 03:30N 51°06' E 001°26'816.7
2017-Oct-12 03:00N 51°02' E 001°38'714.7
2017-Oct-12 02:30N 50°58' E 001°48'2 4.0
2017-Oct-12 02:00N 50°58' E 001°51'0 0.1
2017-Oct-12 01:30N 50°58' E 001°51'714.3
2017-Oct-12 01:01N 50°59' E 001°40'816.0
2017-Oct-12 00:30N 51°03' E 001°29'713.9
2017-Oct-12 00:00N 51°07' E 001°20'0 0.4
2017-Oct-11 23:18N 51°07' E 001°21'516.3
2017-Oct-11 23:00N 51°06' E 001°28'816.4
2017-Oct-11 22:30N 51°02' E 001°38'816.0
2017-Oct-11 22:00N 50°58' E 001°50'1 1.6
2017-Oct-11 21:30N 50°58' E 001°51'1 1.2
2017-Oct-11 21:01N 50°58' E 001°50'917.8
2017-Oct-11 20:30N 50°60' E 001°36'1019.9
2017-Oct-11 20:01N 51°06' E 001°24'3 5.7
2017-Oct-11 19:30N 51°07' E 001°20'0 0.0
2017-Oct-11 19:00N 51°07' E 001°20'2 4.6
2017-Oct-11 18:31N 51°07' E 001°24'2 3.9
2017-Oct-11 18:00N 51°06' E 001°27'815.9
2017-Oct-11 17:30N 51°02' E 001°37'815.2
2017-Oct-11 17:00N 50°58' E 001°48'16 0.9
2017-Oct-11 00:00N 51°04' E 001°25'5 9.2
2017-Oct-10 23:30N 51°07' E 001°20'0 0.0
2017-Oct-10 23:00N 51°07' E 001°20'1 2.6
2017-Oct-10 22:30N 51°07' E 001°22'917.2
2017-Oct-10 22:00N 51°03' E 001°34'917.5
2017-Oct-10 21:30N 50°58' E 001°46'4 7.2
2017-Oct-10 21:00N 50°58' E 001°51'0 0.0
2017-Oct-10 20:30N 50°58' E 001°51'5 9.5
2017-Oct-10 20:01N 50°58' E 001°44'918.1
2017-Oct-10 19:30N 51°01' E 001°30'  
Track history (hours):
 
Tides and Currents Weather Stations Pressure Air Temp Water Temp Dewpoint Dewpoint Depression Visibility Wind Speed Wind Dir Waves Ship Positions

Seafrance Rodin

Operator: SeaFrance

Last reported at 2017-Oct-20 19:30 UTC. Time now 2017-Oct-20 19:51 UTC.
Position N 51°08' E 001°20'.

; draft 6 m.

Type: Passenger vessel. MMSI: 227022800.

Date/timePositionNaut miles runAvg speedWind from/ knotsBaromVisibWave heightAir tempDewpointWater temp
2017-Oct-20 19:30N 51°08' E 001°20'0 0.8
2017-Oct-20 18:59N 51°07' E 001°20'510.3
2017-Oct-20 18:30N 51°06' E 001°28'815.9
2017-Oct-20 18:00N 51°01' E 001°38'815.4
2017-Oct-20 17:30N 50°58' E 001°49'1 2.4
2017-Oct-20 17:00N 50°58' E 001°51'2 3.6
2017-Oct-20 16:31N 50°58' E 001°48'714.5
2017-Oct-20 16:01N 51°00' E 001°37'918.5
2017-Oct-20 15:31N 51°06' E 001°25'4 7.5
2017-Oct-20 15:00N 51°08' E 001°20'2 2.1
2017-Oct-20 14:01N 51°07' E 001°24'5 9.6
2017-Oct-20 13:30N 51°05' E 001°30'816.1
2017-Oct-20 13:01N 51°00' E 001°41'713.8
2017-Oct-20 12:30N 50°58' E 001°51'0 0.1
2017-Oct-20 12:00N 50°58' E 001°51'3 6.2
2017-Oct-20 11:31N 50°58' E 001°46'1019.4
2017-Oct-20 11:00N 51°03' E 001°33'916.8
2017-Oct-20 10:27N 51°08' E 001°20'0 0.0
2017-Oct-20 10:00N 51°08' E 001°20'0 0.0
2017-Oct-20 09:30N 51°08' E 001°20'2 3.5
2017-Oct-20 09:01N 51°07' E 001°23'3 6.4
2017-Oct-20 08:30N 51°06' E 001°28'1216.9
2017-Oct-20 07:47N 50°59' E 001°43'516.6
2017-Oct-20 07:30N 50°58' E 001°50'1 1.1
2017-Oct-20 07:00N 50°58' E 001°51'0 0.0
2017-Oct-20 06:30N 50°58' E 001°51'4 8.3
2017-Oct-20 06:01N 50°58' E 001°45'1717.0
2017-Oct-20 05:00N 51°07' E 001°22'1 2.4
2017-Oct-20 04:30N 51°08' E 001°20'0 0.0
2017-Oct-20 04:00N 51°08' E 001°20'4 7.5
2017-Oct-20 03:31N 51°07' E 001°26'816.3
2017-Oct-20 03:01N 51°02' E 001°37'815.7
2017-Oct-20 02:31N 50°58' E 001°48'2 4.3
2017-Oct-20 02:00N 50°58' E 001°51'0 0.0
2017-Oct-20 01:30N 50°58' E 001°51'2 3.7
2017-Oct-20 01:00N 50°58' E 001°48'918.7
2017-Oct-20 00:30N 51°00' E 001°34'815.1
2017-Oct-20 00:01N 51°05' E 001°25'4 7.2
2017-Oct-19 23:30N 51°08' E 001°20'0 0.0
2017-Oct-19 23:00N 51°08' E 001°20'1 1.2
2017-Oct-19 22:30N 51°07' E 001°21'816.9
2017-Oct-19 22:01N 51°04' E 001°33'1019.9
2017-Oct-19 21:30N 50°58' E 001°46'3 6.3
2017-Oct-19 21:00N 50°58' E 001°51'0 0.0
2017-Oct-19 20:30N 50°58' E 001°51'4 7.6
2017-Oct-19 20:01N 50°58' E 001°45'917.6
2017-Oct-19 19:30N 51°02' E 001°33'917.6
2017-Oct-19 19:00N 51°07' E 001°21'1 1.6
2017-Oct-19 18:30N 51°08' E 001°20'0 0.0
2017-Oct-19 18:00N 51°08' E 001°20'612.0
2017-Oct-19 17:30N 51°05' E 001°29'1019.0
2017-Oct-19 17:00N 50°59' E 001°41'612.8
2017-Oct-19 16:30N 50°58' E 001°51'0 0.0
2017-Oct-19 16:00N 50°58' E 001°51'2 4.4
2017-Oct-19 15:31N 50°58' E 001°48'917.3
2017-Oct-19 15:00N 51°00' E 001°35'918.9
2017-Oct-19 14:31N 51°06' E 001°23'2 4.0
2017-Oct-19 14:00N 51°08' E 001°20'0 0.0
2017-Oct-19 13:30N 51°08' E 001°20'4 8.8
2017-Oct-19 13:01N 51°06' E 001°27'1020.1
2017-Oct-19 12:30N 51°00' E 001°40'714.8
2017-Oct-19 12:00N 50°58' E 001°51'0 0.1
2017-Oct-19 11:30N 50°58' E 001°51'0 0.0
2017-Oct-19 11:00N 50°58' E 001°51'816.2
2017-Oct-19 10:30N 50°59' E 001°38'917.7
2017-Oct-19 10:00N 51°04' E 001°27'610.6
2017-Oct-19 09:29N 51°08' E 001°20'0 0.0
2017-Oct-19 09:00N 51°08' E 001°20'3 5.3
2017-Oct-19 08:30N 51°07' E 001°24'918.2
2017-Oct-19 08:00N 51°02' E 001°37'917.6
2017-Oct-19 07:30N 50°58' E 001°49'1 2.5
2017-Oct-19 07:00N 50°58' E 001°51'0 0.0
2017-Oct-19 06:30N 50°58' E 001°51'4 8.0
2017-Oct-19 06:00N 50°58' E 001°45'816.5
2017-Oct-19 05:30N 51°01' E 001°33'917.5
2017-Oct-19 05:00N 51°06' E 001°22'2 3.0
2017-Oct-19 04:30N 51°08' E 001°20'0 0.0
2017-Oct-19 04:00N 51°08' E 001°20'4 7.6
2017-Oct-19 03:30N 51°07' E 001°26'917.5
2017-Oct-19 03:00N 51°02' E 001°38'815.8
2017-Oct-19 02:30N 50°58' E 001°49'1 2.3
2017-Oct-19 02:01N 50°58' E 001°51'0 0.0
2017-Oct-19 01:31N 50°58' E 001°51'1 1.6
2017-Oct-19 01:01N 50°58' E 001°50'917.8
2017-Oct-19 00:31N 50°60' E 001°36'917.2
2017-Oct-19 00:01N 51°05' E 001°25'4 7.8
2017-Oct-18 23:30N 51°08' E 001°20'0 0.0
2017-Oct-18 23:00N 51°08' E 001°20'1 1.8
2017-Oct-18 22:30N 51°07' E 001°22'918.4
2017-Oct-18 22:00N 51°03' E 001°34'919.0
2017-Oct-18 21:30N 50°58' E 001°47'2 4.8
2017-Oct-18 21:00N 50°58' E 001°51'0 0.0
2017-Oct-18 20:30N 50°58' E 001°51'5 9.2
2017-Oct-18 20:00N 50°58' E 001°44'917.9
2017-Oct-18 19:30N 51°01' E 001°31'917.5
2017-Oct-18 19:00N 51°07' E 001°21'0 0.7
2017-Oct-18 18:30N 51°08' E 001°20'0 0.0
2017-Oct-18 18:00N 51°08' E 001°20'612.7
2017-Oct-18 17:31N 51°05' E 001°29'1019.2
2017-Oct-18 17:00N 50°59' E 001°42'611.7
2017-Oct-18 16:30N 50°58' E 001°51'0 0.0
2017-Oct-18 16:00N 50°58' E 001°51'2 4.8
2017-Oct-18 15:31N 50°58' E 001°47'918.3
2017-Oct-18 15:00N 51°01' E 001°34'1110.5
2017-Oct-18 14:00N 51°08' E 001°20'0 0.1
2017-Oct-18 13:29N 51°07' E 001°20'612.6
2017-Oct-18 13:00N 51°06' E 001°30'918.6
2017-Oct-18 12:30N 50°60' E 001°40'713.6
2017-Oct-18 12:01N 50°58' E 001°51'0 0.5
2017-Oct-18 11:31N 50°58' E 001°51'0 0.2
2017-Oct-18 11:00N 50°58' E 001°51'815.5
2017-Oct-18 10:30N 50°59' E 001°39'919.0
2017-Oct-18 10:01N 51°04' E 001°26'510.3
2017-Oct-18 09:30N 51°08' E 001°20'0 0.0
2017-Oct-18 09:00N 51°08' E 001°20'3 5.4
2017-Oct-18 08:31N 51°07' E 001°24'918.7
2017-Oct-18 08:00N 51°01' E 001°37'917.4
2017-Oct-18 07:30N 50°58' E 001°50'1 2.0
2017-Oct-18 07:00N 50°58' E 001°51'0 0.0
2017-Oct-18 06:30N 50°58' E 001°51'4 8.6
2017-Oct-18 06:00N 50°58' E 001°44'816.2
2017-Oct-18 05:30N 51°01' E 001°33'817.0
2017-Oct-18 05:00N 51°06' E 001°22'2 3.0
2017-Oct-18 04:30N 51°08' E 001°20'0 0.0
2017-Oct-18 03:59N 51°08' E 001°20'5 9.7
2017-Oct-18 03:31N 51°06' E 001°27'714.3
2017-Oct-18 03:01N 51°02' E 001°36'815.9
2017-Oct-18 02:31N 50°58' E 001°48'2 4.6
2017-Oct-18 02:01N 50°58' E 001°51'0 0.0
2017-Oct-18 01:31N 50°58' E 001°51'1 2.2
2017-Oct-18 01:01N 50°58' E 001°50'816.8
2017-Oct-18 00:31N 50°60' E 001°36'917.1
2017-Oct-18 00:01N 51°05' E 001°26'4 8.0
2017-Oct-17 23:28N 51°08' E 001°20'0 0.0
2017-Oct-17 23:00N 51°08' E 001°20'2 4.5
2017-Oct-17 22:30N 51°07' E 001°24'816.4
2017-Oct-17 22:01N 51°04' E 001°36'917.4
2017-Oct-17 21:30N 50°58' E 001°46'3 6.3
2017-Oct-17 21:00N 50°58' E 001°51'0 0.0
2017-Oct-17 20:31N 50°58' E 001°51'815.1
2017-Oct-17 20:00N 50°59' E 001°39'1019.2
2017-Oct-17 19:30N 51°04' E 001°27'510.3
2017-Oct-17 19:00N 51°08' E 001°20'0 0.0
2017-Oct-17 18:30N 51°08' E 001°20'0 0.9
2017-Oct-17 18:00N 51°07' E 001°21'817.0
2017-Oct-17 17:31N 51°03' E 001°33'1019.2
2017-Oct-17 17:00N 50°58' E 001°46'4 7.1
2017-Oct-17 16:31N 50°58' E 001°51'0 0.0
2017-Oct-17 16:01N 50°58' E 001°51'3 6.4
2017-Oct-17 15:31N 50°58' E 001°46'918.6
2017-Oct-17 15:01N 51°02' E 001°33'1018.5
2017-Oct-17 14:30N 51°07' E 001°20'0 0.5
2017-Oct-17 14:00N 51°08' E 001°20'0 0.3
2017-Oct-17 13:30N 51°07' E 001°20'714.5
2017-Oct-17 13:01N 51°04' E 001°31'917.7
2017-Oct-17 12:31N 50°60' E 001°43'611.2
2017-Oct-17 12:00N 50°58' E 001°51'0 0.0
2017-Oct-17 11:30N 50°58' E 001°51'0 0.7
2017-Oct-17 11:00N 50°58' E 001°51'917.5
2017-Oct-17 10:30N 50°59' E 001°37'918.3
2017-Oct-17 10:01N 51°05' E 001°26'4 7.9
2017-Oct-17 09:29N 51°08' E 001°20'0 0.0
2017-Oct-17 08:58N 51°08' E 001°20'3 5.9
2017-Oct-17 08:30N 51°07' E 001°25'1020.4
2017-Oct-17 08:00N 51°01' E 001°38'816.6
2017-Oct-17 07:30N 50°58' E 001°51'0 1.0
2017-Oct-17 07:00N 50°58' E 001°51'0 0.0
2017-Oct-17 06:30N 50°58' E 001°51'4 7.5
2017-Oct-17 06:00N 50°58' E 001°45'816.0
2017-Oct-17 05:30N 51°01' E 001°33'917.2
2017-Oct-17 05:00N 51°06' E 001°23'2 4.4
2017-Oct-17 04:30N 51°08' E 001°20'0 0.0
2017-Oct-17 04:00N 51°08' E 001°20'5 9.5
2017-Oct-17 03:30N 51°06' E 001°27'714.7
2017-Oct-17 03:01N 51°02' E 001°37'714.8
2017-Oct-17 02:30N 50°58' E 001°47'3 5.1
2017-Oct-17 02:00N 50°58' E 001°51'0 0.0
2017-Oct-17 01:30N 50°58' E 001°51'2 4.3
2017-Oct-17 01:00N 50°58' E 001°48'816.5
2017-Oct-17 00:30N 51°00' E 001°35'917.5
2017-Oct-17 00:00N 51°05' E 001°24'3 6.1
2017-Oct-16 23:30N 51°08' E 001°20'0 0.0
2017-Oct-16 22:56N 51°08' E 001°20'2 3.8
2017-Oct-16 22:30N 51°07' E 001°23'817.0
2017-Oct-16 22:01N 51°03' E 001°34'918.6
2017-Oct-16 21:30N 50°58' E 001°47'3 5.2
2017-Oct-16 21:00N 50°58' E 001°51'0 0.0
2017-Oct-16 20:30N 50°58' E 001°51'5 9.6
2017-Oct-16 20:00N 50°58' E 001°44'1019.1
2017-Oct-16 19:30N 51°03' E 001°31'815.8
2017-Oct-16 19:00N 51°07' E 001°20'0 0.1
2017-Oct-16 18:30N 51°08' E 001°20'0 0.3
2017-Oct-16 17:59N 51°07' E 001°20'714.3
2017-Oct-16 17:30N 51°05' E 001°31'918.8
2017-Oct-16 17:00N 50°59' E 001°43'611.0
2017-Oct-16 16:31N 50°58' E 001°51'0 0.0
2017-Oct-16 16:00N 50°58' E 001°51'1 2.6
2017-Oct-16 15:30N 50°58' E 001°49'816.0
2017-Oct-16 15:00N 51°00' E 001°37'1312.7
2017-Oct-16 14:01N 51°07' E 001°20'0 0.0
2017-Oct-16 13:29N 51°07' E 001°20'511.3
2017-Oct-16 13:00N 51°06' E 001°28'918.7
2017-Oct-16 12:30N 51°01' E 001°40'714.5
2017-Oct-16 12:01N 50°58' E 001°51'0 0.2
2017-Oct-16 11:30N 50°58' E 001°51'0 0.8
2017-Oct-16 11:00N 50°58' E 001°51'816.6
2017-Oct-16 10:30N 50°59' E 001°38'918.1
2017-Oct-16 10:00N 51°05' E 001°26'5 8.1
2017-Oct-16 09:27N 51°07' E 001°20'0 0.0
2017-Oct-16 09:00N 51°07' E 001°20'3 6.2
2017-Oct-16 08:30N 51°07' E 001°25'918.8
2017-Oct-16 08:00N 51°02' E 001°38'816.3
2017-Oct-16 07:30N 50°58' E 001°49'1 2.3
2017-Oct-16 07:01N 50°58' E 001°51'0 0.0
2017-Oct-16 06:30N 50°58' E 001°51'4 7.2
2017-Oct-16 06:01N 50°58' E 001°46'815.8
2017-Oct-16 05:30N 51°00' E 001°34'816.4
2017-Oct-16 05:01N 51°06' E 001°24'3 5.2
2017-Oct-16 04:27N 51°07' E 001°20'0 0.0
2017-Oct-16 03:59N 51°07' E 001°20'511.1
2017-Oct-16 03:31N 51°05' E 001°28'816.2
2017-Oct-16 03:01N 51°01' E 001°38'815.1
2017-Oct-16 02:30N 50°58' E 001°50'1 1.7
2017-Oct-16 02:00N 50°58' E 001°51'0 0.0
2017-Oct-16 01:30N 50°58' E 001°51'2 3.1
2017-Oct-16 01:00N 50°58' E 001°49'817.0
2017-Oct-16 00:30N 51°00' E 001°36'918.9
2017-Oct-16 00:00N 51°05' E 001°23'3 5.2
2017-Oct-15 23:30N 51°07' E 001°20'0 0.0
2017-Oct-15 22:58N 51°07' E 001°20'2 4.2
2017-Oct-15 22:31N 51°07' E 001°23'918.2
2017-Oct-15 22:01N 51°03' E 001°36'917.2
2017-Oct-15 21:31N 50°58' E 001°48'2 4.4
2017-Oct-15 21:00N 50°58' E 001°51'0 0.0
2017-Oct-15 20:30N 50°58' E 001°51'4 7.7
2017-Oct-15 20:00N 50°58' E 001°45'918.5
2017-Oct-15 19:30N 51°01' E 001°31'817.0
2017-Oct-15 19:00N 51°07' E 001°22'1 2.0
2017-Oct-15 18:30N 51°07' E 001°20'0 0.0
2017-Oct-15 17:59N 51°07' E 001°20'714.1
2017-Oct-15 17:31N 51°04' E 001°30'918.9
2017-Oct-15 17:00N 50°59' E 001°43'611.2
2017-Oct-15 16:30N 50°58' E 001°51'0 0.0
2017-Oct-15 16:01N 50°58' E 001°51'2 3.6
2017-Oct-15 15:30N 50°58' E 001°48'816.2
2017-Oct-15 15:00N 51°00' E 001°36'1212.3
2017-Oct-15 14:00N 51°07' E 001°20'0 0.0
2017-Oct-15 13:30N 51°07' E 001°20'612.4
2017-Oct-15 13:01N 51°07' E 001°30'918.5
2017-Oct-15 12:30N 51°01' E 001°41'713.9
2017-Oct-15 12:01N 50°58' E 001°51'0 0.3
2017-Oct-15 11:30N 50°58' E 001°52'0 0.0
2017-Oct-15 11:00N 50°58' E 001°52'0 0.0
2017-Oct-15 10:30N 50°58' E 001°52'0 0.0
2017-Oct-15 10:00N 50°58' E 001°52'0 0.0
2017-Oct-15 09:30N 50°58' E 001°52'0 0.0
2017-Oct-15 09:00N 50°58' E 001°52'0 0.0
2017-Oct-15 08:30N 50°58' E 001°52'0 0.0
2017-Oct-15 08:00N 50°58' E 001°52'0 0.0
2017-Oct-15 07:30N 50°58' E 001°52'0 0.0
2017-Oct-15 07:00N 50°58' E 001°52'0 0.0
2017-Oct-15 06:30N 50°58' E 001°52'0 0.0
2017-Oct-15 06:00N 50°58' E 001°52'0 0.0
2017-Oct-15 05:30N 50°58' E 001°52'0 0.0
2017-Oct-15 05:00N 50°58' E 001°52'0 0.0
2017-Oct-15 04:30N 50°58' E 001°52'0 0.0
2017-Oct-15 04:00N 50°58' E 001°52'0 0.0
2017-Oct-15 03:30N 50°58' E 001°52'0 0.0
2017-Oct-15 03:00N 50°58' E 001°52'0 0.0
2017-Oct-15 02:30N 50°58' E 001°52'0 0.0
2017-Oct-15 02:00N 50°58' E 001°52'0 0.0
2017-Oct-15 01:29N 50°58' E 001°52'4 8.8
2017-Oct-15 01:01N 50°58' E 001°45'714.8
2017-Oct-15 00:30N 51°00' E 001°34'816.9
2017-Oct-15 00:00N 51°06' E 001°24'3 5.6
2017-Oct-14 23:30N 51°07' E 001°20'0 0.0
2017-Oct-14 23:00N 51°07' E 001°20'1 2.9
2017-Oct-14 22:30N 51°07' E 001°22'918.1
2017-Oct-14 22:00N 51°03' E 001°35'917.8
2017-Oct-14 21:30N 50°58' E 001°47'3 5.3
2017-Oct-14 21:01N 50°58' E 001°51'0 0.0
2017-Oct-14 20:31N 50°58' E 001°51'3 6.1
2017-Oct-14 20:01N 50°58' E 001°46'917.8
2017-Oct-14 19:30N 51°02' E 001°33'917.9
2017-Oct-14 19:00N 51°07' E 001°22'1 2.0
2017-Oct-14 18:30N 51°07' E 001°20'0 0.0
2017-Oct-14 18:01N 51°07' E 001°20'612.9
2017-Oct-14 17:31N 51°05' E 001°30'918.7
2017-Oct-14 17:01N 50°60' E 001°42'612.0
2017-Oct-14 16:31N 50°58' E 001°51'0 0.0
2017-Oct-14 16:01N 50°58' E 001°51'2 4.3
2017-Oct-14 15:30N 50°58' E 001°48'917.0
2017-Oct-14 15:00N 51°01' E 001°35'918.1
2017-Oct-14 14:30N 51°06' E 001°23'2 4.5
2017-Oct-14 14:00N 51°07' E 001°20'0 0.0
2017-Oct-14 13:30N 51°07' E 001°20'612.2
2017-Oct-14 13:00N 51°06' E 001°29'918.4
2017-Oct-14 12:31N 51°00' E 001°41'714.1
2017-Oct-14 12:01N 50°58' E 001°51'0 0.1
2017-Oct-14 11:31N 50°58' E 001°51'1 1.4
2017-Oct-14 11:01N 50°58' E 001°50'917.6
2017-Oct-14 10:30N 50°59' E 001°36'918.4
2017-Oct-14 10:01N 51°05' E 001°25'4 6.5
2017-Oct-14 09:23N 51°07' E 001°20'0 0.0
2017-Oct-14 08:59N 51°07' E 001°20'3 5.7
2017-Oct-14 08:30N 51°07' E 001°24'919.0
2017-Oct-14 08:00N 51°02' E 001°37'816.8
2017-Oct-14 07:30N 50°58' E 001°49'1 2.5
2017-Oct-14 07:00N 50°58' E 001°51'0 0.0
2017-Oct-14 06:30N 50°58' E 001°51'4 7.6
2017-Oct-14 06:00N 50°58' E 001°45'815.9
2017-Oct-14 05:30N 50°60' E 001°33'816.6
2017-Oct-14 05:00N 51°06' E 001°24'3 5.3
2017-Oct-14 04:29N 51°07' E 001°20'0 0.0
2017-Oct-14 04:00N 51°07' E 001°20'4 8.1
2017-Oct-14 03:30N 51°06' E 001°26'816.3
2017-Oct-14 03:00N 51°01' E 001°37'816.3
2017-Oct-14 02:30N 50°58' E 001°49'2 3.2
2017-Oct-14 02:00N 50°58' E 001°51'0 0.0
2017-Oct-14 01:30N 50°58' E 001°51'3 6.1
2017-Oct-14 01:00N 50°58' E 001°46'816.1
2017-Oct-14 00:30N 50°59' E 001°34'917.7
2017-Oct-14 00:00N 51°05' E 001°23'3 5.7
2017-Oct-13 23:29N 51°07' E 001°20'0 0.0
2017-Oct-13 23:00N 51°07' E 001°20'2 3.2
2017-Oct-13 22:30N 51°07' E 001°23'817.0
2017-Oct-13 22:01N 51°04' E 001°35'917.5
2017-Oct-13 21:31N 50°58' E 001°45'4 7.3
2017-Oct-13 21:01N 50°58' E 001°51'0 0.0
2017-Oct-13 20:30N 50°58' E 001°51'3 5.6
2017-Oct-13 20:00N 50°58' E 001°47'917.4
2017-Oct-13 19:30N 51°02' E 001°35'1018.2
2017-Oct-13 18:59N 51°07' E 001°21'1 1.9
2017-Oct-13 18:28N 51°07' E 001°20'0 0.0
2017-Oct-13 18:00N 51°07' E 001°20'611.5
2017-Oct-13 17:30N 51°05' E 001°29'918.3
2017-Oct-13 17:01N 50°60' E 001°40'714.3
2017-Oct-13 16:31N 50°58' E 001°51'0 0.3
2017-Oct-13 16:00N 50°58' E 001°51'1 2.5
2017-Oct-13 15:31N 50°58' E 001°49'917.9
2017-Oct-13 15:00N 51°00' E 001°35'918.1
2017-Oct-13 14:31N 51°06' E 001°24'3 5.6
2017-Oct-13 14:00N 51°07' E 001°20'0 0.0
2017-Oct-13 13:30N 51°07' E 001°20'612.8
2017-Oct-13 13:00N 51°06' E 001°30'1019.1
2017-Oct-13 12:30N 50°60' E 001°41'612.9
2017-Oct-13 12:00N 50°58' E 001°51'0 0.0
2017-Oct-13 11:30N 50°58' E 001°51'0 0.4
2017-Oct-13 11:00N 50°58' E 001°51'815.6
2017-Oct-13 10:30N 50°59' E 001°39'1019.4
2017-Oct-13 10:01N 51°04' E 001°25'5 8.8
2017-Oct-13 09:28N 51°07' E 001°20'0 0.0
2017-Oct-13 08:59N 51°07' E 001°20'3 6.5
2017-Oct-13 08:30N 51°07' E 001°25'918.9
2017-Oct-13 08:00N 51°02' E 001°38'816.5
2017-Oct-13 07:31N 50°58' E 001°50'1 1.8
2017-Oct-13 07:00N 50°58' E 001°51'0 0.0
2017-Oct-13 06:31N 50°58' E 001°51'3 5.5
2017-Oct-13 06:00N 50°58' E 001°47'917.4
2017-Oct-13 05:31N 51°01' E 001°34'816.4
2017-Oct-13 05:01N 51°06' E 001°24'3 4.3
2017-Oct-13 04:22N 51°07' E 001°20'0 0.0
2017-Oct-13 03:58N 51°07' E 001°20'4 9.2
2017-Oct-13 03:30N 51°06' E 001°27'815.7
2017-Oct-13 03:00N 51°01' E 001°37'815.5
2017-Oct-13 02:30N 50°58' E 001°48'2 3.9
2017-Oct-13 02:00N 50°58' E 001°51'0 0.0
2017-Oct-13 01:31N 50°58' E 001°51'1 3.0
2017-Oct-13 01:00N 50°58' E 001°49'714.8
2017-Oct-13 00:30N 51°00' E 001°37'816.3
2017-Oct-13 00:00N 51°05' E 001°27'5 9.6
2017-Oct-12 23:30N 51°07' E 001°20'0 0.0
2017-Oct-12 23:00N 51°07' E 001°20'1 2.0
2017-Oct-12 22:30N 51°07' E 001°22'917.8
2017-Oct-12 22:01N 51°03' E 001°34'918.4
2017-Oct-12 21:31N 50°58' E 001°46'3 6.4
2017-Oct-12 21:00N 50°58' E 001°51'0 0.0
2017-Oct-12 20:30N 50°58' E 001°51'510.4
2017-Oct-12 20:00N 50°58' E 001°43'817.0
2017-Oct-12 19:30N 51°02' E 001°31'916.6
2017-Oct-12 18:59N 51°07' E 001°20'0 0.1
2017-Oct-12 18:29N 51°07' E 001°20'0 0.1
2017-Oct-12 18:00N 51°07' E 001°20'714.3
2017-Oct-12 17:30N 51°05' E 001°31'1019.6
2017-Oct-12 17:00N 50°59' E 001°43'510.5
2017-Oct-12 16:30N 50°58' E 001°51'0 0.0
2017-Oct-12 16:00N 50°58' E 001°51'2 4.6
2017-Oct-12 15:30N 50°58' E 001°48'1019.3
2017-Oct-12 15:00N 51°01' E 001°33'918.2
2017-Oct-12 14:30N 51°07' E 001°22'1 2.4
2017-Oct-12 14:00N 51°07' E 001°20'0 0.1
2017-Oct-12 13:30N 51°07' E 001°20'714.3
2017-Oct-12 13:00N 51°06' E 001°31'1019.8
2017-Oct-12 12:30N 50°59' E 001°43'510.9
2017-Oct-12 12:00N 50°58' E 001°51'0 0.0
2017-Oct-12 11:30N 50°58' E 001°51'1 1.8
2017-Oct-12 11:01N 50°58' E 001°50'713.2
2017-Oct-12 10:31N 50°58' E 001°40'918.7
2017-Oct-12 10:01N 51°04' E 001°28'611.7
2017-Oct-12 09:30N 51°07' E 001°20'0 0.0
2017-Oct-12 09:00N 51°07' E 001°20'3 5.7
2017-Oct-12 08:30N 51°07' E 001°25'1019.6
2017-Oct-12 08:00N 51°02' E 001°38'917.2
2017-Oct-12 07:30N 50°58' E 001°50'1 1.1
2017-Oct-12 07:00N 50°58' E 001°51'0 0.0
2017-Oct-12 06:30N 50°58' E 001°51'3 7.0
2017-Oct-12 06:00N 50°58' E 001°46'917.3
2017-Oct-12 05:30N 51°02' E 001°34'917.4
2017-Oct-12 05:00N 51°07' E 001°22'1 2.4
2017-Oct-12 04:30N 51°07' E 001°20'0 0.0
2017-Oct-12 04:00N 51°07' E 001°20'4 8.4
2017-Oct-12 03:30N 51°06' E 001°26'816.7
2017-Oct-12 03:00N 51°02' E 001°38'714.7
2017-Oct-12 02:30N 50°58' E 001°48'2 4.0
2017-Oct-12 02:00N 50°58' E 001°51'0 0.1
2017-Oct-12 01:30N 50°58' E 001°51'714.3
2017-Oct-12 01:01N 50°59' E 001°40'816.0
2017-Oct-12 00:30N 51°03' E 001°29'713.9
2017-Oct-12 00:00N 51°07' E 001°20'0 0.4
2017-Oct-11 23:18N 51°07' E 001°21'516.3
2017-Oct-11 23:00N 51°06' E 001°28'816.4
2017-Oct-11 22:30N 51°02' E 001°38'816.0
2017-Oct-11 22:00N 50°58' E 001°50'1 1.6
2017-Oct-11 21:30N 50°58' E 001°51'1 1.2
2017-Oct-11 21:01N 50°58' E 001°50'917.8
2017-Oct-11 20:30N 50°60' E 001°36'1019.9
2017-Oct-11 20:01N 51°06' E 001°24'3 5.7
2017-Oct-11 19:30N 51°07' E 001°20'0 0.0
2017-Oct-11 19:00N 51°07' E 001°20'2 4.6
2017-Oct-11 18:31N 51°07' E 001°24'2 3.9
2017-Oct-11 18:00N 51°06' E 001°27'815.9
2017-Oct-11 17:30N 51°02' E 001°37'815.2
2017-Oct-11 17:00N 50°58' E 001°48'16 0.9
2017-Oct-11 00:00N 51°04' E 001°25'5 9.2
2017-Oct-10 23:30N 51°07' E 001°20'0 0.0
2017-Oct-10 23:00N 51°07' E 001°20'1 2.6
2017-Oct-10 22:30N 51°07' E 001°22'917.2
2017-Oct-10 22:00N 51°03' E 001°34'917.5
2017-Oct-10 21:30N 50°58' E 001°46'4 7.2
2017-Oct-10 21:00N 50°58' E 001°51'0 0.0
2017-Oct-10 20:30N 50°58' E 001°51'5 9.5
2017-Oct-10 20:01N 50°58' E 001°44'918.1
2017-Oct-10 19:30N 51°01' E 001°30'  

Dump ship's entire track history